createdAt,value
2017-08-14T00:02:14.923Z,15.17
2017-08-14T00:04:42.934Z,18.10
2017-08-14T00:07:12.143Z,16.00
2017-08-14T00:09:40.170Z,15.17
2017-08-14T00:12:08.587Z,15.40
2017-08-14T00:14:37.379Z,14.97
2017-08-14T00:17:05.922Z,16.20
2017-08-14T00:19:34.606Z,15.10
2017-08-14T00:22:03.190Z,15.97
2017-08-14T00:24:31.610Z,16.63
2017-08-14T00:27:00.363Z,16.60
2017-08-14T00:29:28.846Z,16.37
2017-08-14T00:31:57.302Z,17.43
2017-08-14T00:34:25.386Z,16.83
2017-08-14T00:36:55.046Z,17.50
2017-08-14T00:39:23.595Z,15.47
2017-08-14T00:41:53.038Z,16.07
2017-08-14T00:44:21.890Z,16.40
2017-08-14T00:46:50.287Z,17.77
2017-08-14T00:49:18.342Z,16.07
2017-08-14T00:51:46.834Z,16.80
2017-08-14T00:54:15.383Z,18.17
2017-08-14T00:56:43.962Z,17.53
2017-08-14T00:59:12.813Z,16.37
2017-08-14T01:01:40.840Z,15.30
2017-08-14T01:04:08.862Z,16.30
2017-08-14T01:06:37.553Z,15.57
2017-08-14T01:09:06.387Z,16.67
2017-08-14T01:11:35.682Z,15.57
2017-08-14T01:14:04.366Z,15.93
2017-08-14T01:16:32.978Z,15.90
2017-08-14T01:19:01.598Z,14.00
2017-08-14T01:21:31.429Z,15.47
2017-08-14T01:24:00.106Z,14.23
2017-08-14T01:26:28.783Z,14.60
2017-08-14T01:28:57.342Z,14.00
2017-08-14T01:31:25.374Z,13.47
2017-08-14T01:33:53.910Z,15.50
2017-08-14T01:36:22.450Z,13.47
2017-08-14T01:38:51.101Z,14.53
2017-08-14T01:41:19.780Z,14.33
2017-08-14T01:43:48.439Z,12.80
2017-08-14T01:46:16.961Z,15.03
2017-08-14T01:48:45.606Z,14.50
2017-08-14T01:51:14.125Z,14.37
2017-08-14T01:53:42.614Z,12.83
2017-08-14T01:56:11.298Z,15.57
2017-08-14T01:58:41.294Z,15.40
2017-08-14T02:01:09.802Z,15.33
2017-08-14T02:03:38.486Z,15.40
2017-08-14T02:06:07.378Z,15.73
2017-08-14T02:08:36.158Z,17.60
2017-08-14T02:11:04.739Z,16.00
2017-08-14T02:13:33.446Z,16.70
2017-08-14T02:16:02.130Z,17.50
2017-08-14T02:18:30.805Z,17.90
2017-08-14T02:20:59.466Z,16.90
2017-08-14T02:23:27.475Z,19.00
2017-08-14T02:25:55.940Z,18.17
2017-08-14T02:28:24.646Z,18.77
2017-08-14T02:30:53.362Z,17.00
2017-08-14T02:33:22.838Z,18.43
2017-08-14T02:35:51.657Z,17.23
2017-08-14T02:38:20.303Z,17.77
2017-08-14T02:40:48.318Z,19.73
2017-08-14T02:43:17.243Z,16.30
2017-08-14T02:45:45.638Z,17.80
2017-08-14T02:48:14.142Z,16.90
2017-08-14T02:50:42.854Z,17.47
2017-08-14T02:53:11.295Z,18.00
2017-08-14T02:55:39.908Z,17.20
2017-08-14T02:58:08.714Z,17.83
2017-08-14T03:00:37.434Z,17.07
2017-08-14T03:03:06.801Z,16.80
2017-08-14T03:05:35.530Z,17.13
2017-08-14T03:08:03.541Z,17.63
2017-08-14T03:10:32.222Z,16.73
2017-08-14T03:13:01.219Z,16.77
2017-08-14T03:15:29.970Z,17.30
2017-08-14T03:17:58.379Z,19.00
2017-08-14T03:20:27.182Z,18.93
2017-08-14T03:22:55.529Z,17.20
2017-08-14T03:25:23.918Z,17.43
2017-08-14T03:27:52.738Z,17.70
2017-08-14T03:30:21.343Z,18.30
2017-08-14T03:32:50.066Z,17.77
2017-08-14T03:35:18.706Z,17.87
2017-08-14T03:37:47.269Z,16.20
2017-08-14T03:40:15.886Z,17.43
2017-08-14T03:42:44.751Z,17.80
2017-08-14T03:45:13.528Z,15.73
2017-08-14T03:47:42.054Z,16.40
2017-08-14T03:50:10.815Z,16.50
2017-08-14T03:52:39.424Z,18.73
2017-08-14T03:55:08.072Z,18.20
2017-08-14T03:57:36.626Z,17.60
2017-08-14T04:00:05.155Z,17.40
2017-08-14T04:02:33.834Z,16.90
2017-08-14T04:05:02.730Z,17.10
2017-08-14T04:07:31.406Z,17.07
2017-08-14T04:09:59.938Z,16.60
2017-08-14T04:12:29.673Z,16.00
2017-08-14T04:14:58.082Z,17.13
2017-08-14T04:17:26.678Z,15.70
2017-08-14T04:19:55.477Z,18.50
2017-08-14T04:22:24.143Z,15.97
2017-08-14T04:24:53.313Z,14.43
2017-08-14T04:27:21.807Z,17.03
2017-08-14T04:29:50.326Z,15.70
2017-08-14T04:32:18.932Z,17.47
2017-08-14T04:34:47.862Z,16.50
2017-08-14T04:37:16.001Z,18.77
2017-08-14T04:39:44.009Z,18.07
2017-08-14T04:42:12.690Z,18.17
2017-08-14T04:44:41.218Z,19.30
2017-08-14T04:47:09.798Z,19.77
2017-08-14T04:49:37.930Z,20.27
2017-08-14T04:52:07.155Z,20.80
2017-08-14T04:54:35.758Z,20.67
2017-08-14T04:57:04.575Z,20.80
2017-08-14T04:59:33.299Z,22.30
2017-08-14T05:02:02.567Z,20.47
2017-08-14T05:04:31.426Z,21.50
2017-08-14T05:07:00.105Z,19.13
2017-08-14T05:09:28.792Z,17.37
2017-08-14T05:11:57.522Z,19.17
2017-08-14T05:14:26.074Z,20.07
2017-08-14T05:16:54.722Z,17.70
2017-08-14T05:19:23.266Z,18.93
2017-08-14T05:21:51.727Z,16.47
2017-08-14T05:24:20.409Z,16.50
2017-08-14T05:26:48.974Z,17.23
2017-08-14T05:29:17.514Z,15.77
2017-08-14T05:31:46.113Z,17.67
2017-08-14T05:34:15.504Z,15.87
2017-08-14T05:36:44.191Z,16.53
2017-08-14T05:39:13.467Z,17.10
2017-08-14T05:41:42.246Z,17.30
2017-08-14T05:44:10.925Z,18.13
2017-08-14T05:46:39.355Z,18.00
2017-08-14T05:49:08.586Z,19.70
2017-08-14T05:51:37.102Z,20.70
2017-08-14T05:54:05.682Z,18.80
2017-08-14T05:56:34.638Z,19.27
2017-08-14T05:59:03.327Z,19.20
2017-08-14T06:01:32.770Z,18.85
2017-08-14T06:04:01.622Z,16.73
2017-08-14T06:06:30.074Z,19.00
2017-08-14T06:08:58.635Z,20.10
2017-08-14T06:11:27.441Z,19.60
2017-08-14T06:13:56.196Z,20.10
2017-08-14T06:16:24.666Z,18.45
2017-08-14T06:18:53.365Z,18.23
2017-08-14T06:21:22.611Z,19.75
2017-08-14T06:23:51.266Z,18.90
2017-08-14T06:26:20.115Z,19.20
2017-08-14T06:28:48.519Z,18.47
2017-08-14T06:31:16.530Z,18.90
2017-08-14T06:33:45.058Z,18.30
2017-08-14T06:36:13.617Z,19.20
2017-08-14T06:38:42.776Z,17.73
2017-08-14T06:41:11.767Z,17.83
2017-08-14T06:43:40.450Z,19.10
2017-08-14T06:46:09.231Z,18.27
2017-08-14T06:48:37.798Z,17.65
2017-08-14T06:51:06.414Z,20.92
2017-08-14T06:53:34.430Z,18.00
2017-08-14T06:56:03.957Z,16.15
2017-08-14T06:58:32.406Z,19.65
2017-08-14T07:01:00.962Z,20.42
2017-08-14T07:03:29.846Z,16.27
2017-08-14T07:05:58.627Z,18.23
2017-08-14T07:08:27.104Z,20.00
2017-08-14T07:10:55.809Z,16.87
2017-08-14T07:13:23.826Z,16.52
2017-08-14T07:15:52.294Z,15.40
2017-08-14T07:18:20.406Z,16.60
2017-08-14T07:20:48.828Z,17.80
2017-08-14T07:23:16.848Z,16.60
2017-08-14T07:25:45.434Z,14.30
2017-08-14T07:28:14.871Z,14.70
2017-08-14T07:30:43.549Z,15.10
2017-08-14T07:33:11.667Z,14.90
2017-08-14T07:35:40.417Z,14.32
2017-08-14T07:38:10.171Z,15.57
2017-08-14T07:40:38.855Z,14.47
2017-08-14T07:43:07.677Z,14.60
2017-08-14T07:45:36.086Z,15.13
2017-08-14T07:48:04.821Z,15.90
2017-08-14T07:50:33.398Z,14.53
2017-08-14T07:53:02.047Z,14.52
2017-08-14T07:55:30.706Z,14.43
2017-08-14T07:57:59.234Z,14.45
2017-08-14T08:00:27.810Z,16.73
2017-08-14T08:02:56.766Z,15.30
2017-08-14T08:05:25.166Z,14.98
2017-08-14T08:07:53.701Z,16.23
2017-08-14T08:10:22.486Z,16.55
2017-08-14T08:12:51.209Z,14.48
2017-08-14T08:15:19.606Z,15.52
2017-08-14T08:17:48.422Z,14.82
2017-08-14T08:20:17.103Z,14.10
2017-08-14T08:22:45.854Z,12.88
2017-08-14T08:25:14.582Z,13.13
2017-08-14T08:27:42.585Z,13.93
2017-08-14T08:30:11.230Z,13.57
2017-08-14T08:32:39.786Z,13.47
2017-08-14T08:35:08.314Z,13.93
2017-08-14T08:37:36.994Z,13.03
2017-08-14T08:40:05.882Z,15.30
2017-08-14T08:42:34.664Z,15.00
2017-08-14T08:45:03.190Z,14.83
2017-08-14T08:47:31.850Z,14.60
2017-08-14T08:50:00.530Z,14.33
2017-08-14T08:52:29.312Z,14.70
2017-08-14T08:54:57.883Z,16.50
2017-08-14T08:57:26.503Z,14.93
2017-08-14T08:59:55.006Z,15.10
2017-08-14T09:02:23.930Z,16.40
2017-08-14T09:04:52.332Z,15.83
2017-08-14T09:07:20.933Z,17.20
2017-08-14T09:09:49.750Z,15.90
2017-08-14T09:12:18.474Z,17.20
2017-08-14T09:14:46.872Z,16.57
2017-08-14T09:17:15.586Z,16.60
2017-08-14T09:19:44.197Z,18.80
2017-08-14T09:22:12.914Z,17.07
2017-08-14T09:24:41.581Z,17.03
2017-08-14T09:27:09.606Z,18.07
2017-08-14T09:29:38.079Z,18.27
2017-08-14T09:32:06.814Z,18.60
2017-08-14T09:34:35.402Z,20.87
2017-08-14T09:37:04.118Z,20.60
2017-08-14T09:39:33.038Z,17.57
2017-08-14T09:42:01.566Z,20.20
2017-08-14T09:44:30.146Z,19.03
2017-08-14T09:46:59.006Z,22.20
2017-08-14T09:49:27.786Z,22.57
2017-08-14T09:51:56.319Z,19.40
2017-08-14T09:54:25.951Z,20.63
2017-08-14T09:56:54.346Z,19.50
2017-08-14T09:59:22.957Z,20.50
2017-08-14T10:01:51.070Z,21.60
2017-08-14T10:04:19.615Z,20.50
2017-08-14T10:06:48.302Z,21.30
2017-08-14T10:09:17.155Z,25.40
2017-08-14T10:11:45.510Z,21.47
2017-08-14T10:14:14.646Z,21.20
2017-08-14T10:16:43.260Z,22.30
2017-08-14T10:19:11.938Z,21.00
2017-08-14T10:21:40.091Z,20.27
2017-08-14T10:24:08.914Z,23.43
2017-08-14T10:26:37.617Z,24.47
2017-08-14T10:29:06.270Z,21.13
2017-08-14T10:31:34.821Z,20.40
2017-08-14T10:34:04.155Z,22.90
2017-08-14T10:36:32.678Z,20.80
2017-08-14T10:39:01.442Z,25.33
2017-08-14T10:41:30.121Z,22.90
2017-08-14T10:43:59.634Z,24.80
2017-08-14T10:46:28.241Z,23.03
2017-08-14T10:48:56.896Z,23.47
2017-08-14T10:51:25.518Z,22.33
2017-08-14T10:53:54.189Z,24.40
2017-08-14T10:56:22.933Z,21.30
2017-08-14T10:58:51.322Z,23.33
2017-08-14T11:01:20.033Z,22.50
2017-08-14T11:03:48.717Z,22.00
2017-08-14T11:06:17.499Z,24.60
2017-08-14T11:08:46.057Z,22.97
2017-08-14T11:11:14.578Z,22.50
2017-08-14T11:13:43.265Z,24.33
2017-08-14T11:16:11.806Z,21.47
2017-08-14T11:18:40.380Z,21.43
2017-08-14T11:21:09.018Z,22.53
2017-08-14T11:23:37.909Z,20.90
2017-08-14T11:26:06.866Z,22.30
2017-08-14T11:28:34.895Z,20.63
2017-08-14T11:31:03.006Z,21.10
2017-08-14T11:33:32.491Z,22.17
2017-08-14T11:36:01.234Z,22.00
2017-08-14T11:38:29.854Z,21.20
2017-08-14T11:40:58.318Z,19.90
2017-08-14T11:43:27.062Z,20.43
2017-08-14T11:45:55.655Z,22.07
2017-08-14T11:48:24.278Z,17.60
2017-08-14T11:50:53.026Z,19.40
2017-08-14T11:53:22.158Z,20.87
2017-08-14T11:55:50.834Z,22.53
2017-08-14T11:58:20.354Z,17.00
2017-08-14T12:00:49.212Z,16.77
2017-08-14T12:03:17.639Z,18.43
2017-08-14T12:05:46.134Z,17.87
2017-08-14T12:08:14.958Z,17.40
2017-08-14T12:10:43.359Z,17.37
2017-08-14T12:13:11.867Z,17.90
2017-08-14T12:15:40.679Z,16.60
2017-08-14T12:18:09.327Z,17.23
2017-08-14T12:20:37.750Z,19.03
2017-08-14T12:23:06.518Z,16.67
2017-08-14T12:25:35.194Z,17.63
2017-08-14T12:28:03.655Z,16.37
2017-08-14T12:30:32.530Z,17.67
2017-08-14T12:33:01.054Z,16.30
2017-08-14T12:35:29.802Z,16.17
2017-08-14T12:37:58.722Z,16.77
2017-08-14T12:40:27.246Z,17.07
2017-08-14T12:42:55.825Z,14.77
2017-08-14T12:45:23.934Z,16.27
2017-08-14T12:47:52.662Z,15.80
2017-08-14T12:50:21.246Z,14.20
2017-08-14T12:52:49.999Z,15.30
2017-08-14T12:55:18.722Z,16.43
2017-08-14T12:57:47.242Z,17.40
2017-08-14T13:00:16.003Z,17.27
2017-08-14T13:02:44.683Z,17.67
2017-08-14T13:05:13.462Z,18.13
2017-08-14T13:07:42.026Z,16.40
2017-08-14T13:10:10.546Z,17.80
2017-08-14T13:12:38.610Z,17.30
2017-08-14T13:15:07.308Z,17.73
2017-08-14T13:17:35.883Z,16.67
2017-08-14T13:20:04.357Z,17.77
2017-08-14T13:22:34.006Z,16.47
2017-08-14T13:25:02.728Z,15.90
2017-08-14T13:27:31.236Z,15.50
2017-08-14T13:30:00.038Z,15.30
2017-08-14T13:32:28.054Z,15.10
2017-08-14T13:34:56.099Z,15.50
2017-08-14T13:37:24.969Z,15.50
2017-08-14T13:39:53.650Z,15.73
2017-08-14T13:42:22.177Z,14.90
2017-08-14T13:44:50.930Z,16.07
2017-08-14T13:47:19.556Z,15.10
2017-08-14T13:49:48.822Z,15.67
2017-08-14T13:52:17.569Z,14.17
2017-08-14T13:54:46.262Z,14.00
2017-08-14T13:57:14.814Z,14.63
2017-08-14T13:59:42.922Z,14.43
2017-08-14T14:02:11.319Z,14.50
2017-08-14T14:04:39.334Z,14.27
2017-08-14T14:07:07.954Z,16.60
2017-08-14T14:09:36.478Z,17.20
2017-08-14T14:12:05.065Z,18.43
2017-08-14T14:14:33.645Z,18.20
2017-08-14T14:17:02.127Z,18.60
2017-08-14T14:19:30.711Z,18.90
2017-08-14T14:21:59.670Z,18.17
2017-08-14T14:24:28.069Z,17.83
2017-08-14T14:26:56.681Z,18.17
2017-08-14T14:29:25.878Z,18.27
2017-08-14T14:31:54.518Z,18.60
2017-08-14T14:34:22.826Z,17.93
2017-08-14T14:36:51.526Z,19.10
2017-08-14T14:39:20.105Z,18.17
2017-08-14T14:41:48.859Z,19.53
2017-08-14T14:44:17.446Z,19.57
2017-08-14T14:46:46.094Z,17.60
2017-08-14T14:49:14.646Z,18.60
2017-08-14T14:51:43.814Z,17.40
2017-08-14T14:54:14.134Z,17.57
2017-08-14T14:56:42.166Z,17.43
2017-08-14T14:59:12.706Z,17.87
2017-08-14T15:01:42.255Z,17.23
2017-08-14T15:04:11.558Z,17.20
2017-08-14T15:06:41.180Z,17.30
2017-08-14T15:09:10.426Z,18.70
2017-08-14T15:11:40.764Z,18.30
2017-08-14T15:14:10.108Z,17.80
2017-08-14T15:16:38.810Z,18.30
2017-08-14T15:19:07.930Z,17.33
2017-08-14T15:21:38.290Z,18.60
2017-08-14T15:24:08.091Z,18.93
2017-08-14T15:26:40.102Z,18.87
2017-08-14T15:29:10.397Z,18.00
2017-08-14T15:31:40.667Z,18.47
2017-08-14T15:34:13.212Z,19.27
2017-08-14T15:36:42.577Z,20.03
2017-08-14T15:39:11.439Z,20.03
2017-08-14T15:41:41.279Z,19.23
2017-08-14T15:44:11.074Z,20.70
2017-08-14T15:46:40.486Z,20.87
2017-08-14T15:49:09.538Z,18.53
2017-08-14T15:51:39.398Z,18.80
2017-08-14T15:54:08.503Z,20.50
2017-08-14T15:56:38.698Z,20.43
2017-08-14T15:59:08.762Z,20.63
2017-08-14T16:01:39.302Z,21.50
2017-08-14T16:04:08.722Z,20.53
2017-08-14T16:06:37.718Z,20.17
2017-08-14T16:09:07.158Z,19.63
2017-08-14T16:11:36.582Z,20.70
2017-08-14T16:14:07.830Z,19.90
2017-08-14T16:16:38.061Z,19.73
2017-08-14T16:19:07.707Z,18.60
2017-08-14T16:21:37.376Z,19.57
2017-08-14T16:24:07.326Z,20.40
2017-08-14T16:26:37.446Z,19.83
2017-08-14T16:29:08.114Z,19.20
2017-08-14T16:31:38.361Z,20.03
2017-08-14T16:34:07.234Z,20.00
2017-08-14T16:36:36.933Z,20.43
2017-08-14T16:39:06.336Z,19.50
2017-08-14T16:41:36.538Z,18.87
2017-08-14T16:44:05.398Z,19.47
2017-08-14T16:46:34.773Z,21.40
2017-08-14T16:49:04.087Z,20.43
2017-08-14T16:51:34.046Z,21.00
2017-08-14T16:54:04.906Z,22.37
2017-08-14T16:56:33.713Z,21.73
2017-08-14T16:59:03.594Z,22.43
2017-08-14T17:01:32.490Z,24.70
2017-08-14T17:04:03.798Z,20.73
2017-08-14T17:06:32.696Z,21.10
2017-08-14T17:09:04.462Z,20.17
2017-08-14T17:11:34.573Z,20.87
2017-08-14T17:14:04.386Z,20.83
2017-08-14T17:16:34.474Z,21.13
2017-08-14T17:19:03.207Z,19.67
2017-08-14T17:21:33.907Z,21.70
2017-08-14T17:24:03.610Z,20.83
2017-08-14T17:26:33.782Z,20.13
2017-08-14T17:29:03.141Z,20.83
2017-08-14T17:31:32.823Z,19.67
2017-08-14T17:34:01.410Z,21.90
2017-08-14T17:36:31.298Z,22.10
2017-08-14T17:39:01.045Z,21.90
2017-08-14T17:41:30.036Z,19.10
2017-08-14T17:44:00.015Z,21.97
2017-08-14T17:46:29.665Z,22.37
2017-08-14T17:48:59.746Z,20.40
2017-08-14T17:51:27.963Z,20.30
2017-08-14T17:53:56.736Z,20.53
2017-08-14T17:56:26.241Z,21.70
2017-08-14T17:58:55.190Z,21.00
2017-08-14T18:01:25.691Z,21.47
2017-08-14T18:03:54.962Z,21.00
2017-08-14T18:06:23.904Z,20.93
2017-08-14T18:08:52.814Z,20.17
2017-08-14T18:11:23.666Z,21.40
2017-08-14T18:13:53.744Z,21.70
2017-08-14T18:16:21.930Z,21.60
2017-08-14T18:18:52.294Z,21.97
2017-08-14T18:21:22.484Z,21.33
2017-08-14T18:23:51.147Z,20.30
2017-08-14T18:26:20.905Z,21.40
2017-08-14T18:28:49.235Z,22.80
2017-08-14T18:31:19.889Z,19.60
2017-08-14T18:33:49.690Z,22.10
2017-08-14T18:36:19.311Z,21.03
2017-08-14T18:38:49.927Z,20.60
2017-08-14T18:41:18.955Z,21.90
2017-08-14T18:43:48.090Z,23.20
2017-08-14T18:46:17.674Z,21.00
2017-08-14T18:48:46.890Z,23.03
2017-08-14T18:51:16.350Z,20.30
2017-08-14T18:53:46.279Z,20.97
2017-08-14T18:56:16.550Z,21.17
2017-08-14T18:58:45.540Z,21.77
2017-08-14T19:01:15.894Z,20.47
2017-08-14T19:03:45.059Z,22.07
2017-08-14T19:06:14.651Z,21.33
2017-08-14T19:08:47.859Z,21.50
2017-08-14T19:11:15.291Z,22.50
2017-08-14T19:13:45.040Z,20.90
2017-08-14T19:16:16.326Z,20.27
2017-08-14T19:18:46.058Z,20.70
2017-08-14T19:21:15.134Z,21.67
2017-08-14T19:23:43.902Z,19.30
2017-08-14T19:26:13.562Z,20.70
2017-08-14T19:28:42.382Z,17.27
2017-08-14T19:31:10.926Z,18.13
2017-08-14T19:33:39.038Z,19.17
2017-08-14T19:36:08.122Z,18.70
2017-08-14T19:38:37.397Z,19.47
2017-08-14T19:41:06.618Z,18.57
2017-08-14T19:43:36.038Z,16.53
2017-08-14T19:46:05.006Z,17.43
2017-08-14T19:48:33.031Z,17.57
2017-08-14T19:51:02.303Z,17.90
2017-08-14T19:53:31.538Z,18.00
2017-08-14T19:56:01.638Z,16.30
2017-08-14T19:58:31.166Z,17.80
2017-08-14T20:01:02.138Z,19.50
2017-08-14T20:03:31.718Z,17.27
2017-08-14T20:06:00.543Z,16.63
2017-08-14T20:08:29.790Z,17.30
2017-08-14T20:10:58.970Z,15.87
2017-08-14T20:13:30.483Z,16.50
2017-08-14T20:16:00.710Z,16.60
2017-08-14T20:18:29.430Z,15.63
2017-08-14T20:20:59.858Z,14.20
2017-08-14T20:23:30.714Z,15.27
2017-08-14T20:25:59.515Z,14.27
2017-08-14T20:28:30.222Z,15.30
2017-08-14T20:30:59.746Z,15.83
2017-08-14T20:33:28.520Z,15.83
2017-08-14T20:35:59.026Z,14.50
2017-08-14T20:38:27.958Z,14.33
2017-08-14T20:40:56.701Z,13.90
2017-08-14T20:43:26.992Z,13.63
2017-08-14T20:45:58.399Z,13.13
2017-08-14T20:48:28.058Z,13.50
2017-08-14T20:50:57.154Z,14.20
2017-08-14T20:53:26.281Z,14.33
2017-08-14T20:55:55.446Z,14.77
2017-08-14T20:58:25.048Z,12.80
2017-08-14T21:00:55.734Z,13.03
2017-08-14T21:03:25.742Z,13.20
2017-08-14T21:05:56.718Z,12.90
2017-08-14T21:08:26.084Z,14.37
2017-08-14T21:10:55.614Z,14.80
2017-08-14T21:13:24.449Z,14.20
2017-08-14T21:15:52.732Z,11.90
2017-08-14T21:18:21.654Z,13.10
2017-08-14T21:20:50.309Z,12.50
2017-08-14T21:23:20.978Z,13.73
2017-08-14T21:25:51.470Z,12.87
2017-08-14T21:28:20.570Z,13.87
2017-08-14T21:30:49.670Z,13.43
2017-08-14T21:33:18.830Z,14.33
2017-08-14T21:35:48.275Z,13.90
2017-08-14T21:38:18.392Z,12.90
2017-08-14T21:40:47.959Z,13.40
2017-08-14T21:43:21.398Z,14.60
2017-08-14T21:45:49.498Z,15.80
2017-08-14T21:48:18.671Z,14.30
2017-08-14T21:50:49.794Z,14.07
2017-08-14T21:53:18.963Z,15.10
2017-08-14T21:55:48.382Z,14.97
2017-08-14T21:58:17.630Z,13.90
2017-08-14T22:00:47.978Z,15.00
2017-08-14T22:03:16.671Z,15.27
2017-08-14T22:05:48.254Z,14.73
2017-08-14T22:08:17.492Z,14.40
2017-08-14T22:10:46.796Z,14.53
2017-08-14T22:13:16.527Z,15.93
2017-08-14T22:15:46.330Z,15.90
2017-08-14T22:18:14.886Z,14.20
2017-08-14T22:20:43.477Z,13.80
2017-08-14T22:23:14.047Z,14.40
2017-08-14T22:25:42.827Z,14.30
2017-08-14T22:28:12.614Z,17.20
2017-08-14T22:30:42.587Z,14.37
2017-08-14T22:33:13.245Z,16.47
2017-08-14T22:35:43.138Z,14.80
2017-08-14T22:38:12.210Z,15.27
2017-08-14T22:40:43.587Z,14.07
2017-08-14T22:43:13.714Z,15.53
2017-08-14T22:45:42.543Z,14.60
2017-08-14T22:48:12.755Z,13.70
2017-08-14T22:50:43.995Z,15.00
2017-08-14T22:53:13.898Z,13.60
2017-08-14T22:55:43.743Z,13.43
2017-08-14T22:58:13.254Z,13.23
2017-08-14T23:00:44.462Z,14.70
2017-08-14T23:03:14.794Z,13.33
2017-08-14T23:05:43.506Z,12.13
2017-08-14T23:08:13.302Z,14.97
2017-08-14T23:10:41.849Z,13.57
2017-08-14T23:13:13.078Z,14.43
2017-08-14T23:15:42.606Z,13.80
2017-08-14T23:18:13.566Z,14.10
2017-08-14T23:20:43.891Z,15.60
2017-08-14T23:23:12.223Z,14.43
2017-08-14T23:25:41.802Z,13.10
2017-08-14T23:28:11.378Z,13.87
2017-08-14T23:30:39.790Z,14.80
2017-08-14T23:33:09.014Z,13.90
2017-08-14T23:35:38.097Z,12.93
2017-08-14T23:38:08.115Z,12.47
2017-08-14T23:40:36.986Z,11.83
2017-08-14T23:43:06.522Z,12.13
2017-08-14T23:45:36.067Z,11.30
2017-08-14T23:48:05.434Z,10.30
2017-08-14T23:50:35.294Z,9.63
2017-08-14T23:53:04.654Z,11.13
2017-08-14T23:55:34.190Z,9.30
2017-08-14T23:58:04.823Z,9.17
